Time;durP1;ratioP1;P1;durP2;ratioP2;P2;SDS_P1;SDS_P2;PMS_P1;PMS_P2;Temp;Humidity;BMP_temperature;BMP_pressure;BME280_temperature;BME280_humidity;BME280_pressure;Samples;Min_cycle;Max_cycle;Signal;HPM_P1;HPM_P2
2021/06/23 00:00:49;;;;;;;2.40;1.90;;;25.30;99.90;;;;;;4951746;29;20484;-78
2021/06/23 00:03:15;;;;;;;5.15;2.97;;;25.50;99.90;;;;;;4943638;29;20038;-82
2021/06/23 00:05:41;;;;;;;11.20;3.10;;;25.60;99.90;;;;;;4944589;28;20038;-81
2021/06/23 00:08:07;;;;;;;0.60;0.60;;;25.70;99.90;;;;;;4942992;29;20404;-82
2021/06/23 00:10:33;;;;;;;2.33;1.98;;;25.70;99.90;;;;;;4944075;28;20036;-81
2021/06/23 00:13:07;;;;;;;11.50;2.15;;;25.70;99.90;;;;;;4927393;29;20047;-79
2021/06/23 00:15:34;;;;;;;3.72;3.05;;;25.70;99.90;;;;;;4927563;29;20051;-79
2021/06/23 00:18:00;;;;;;;2.25;1.50;;;25.70;99.90;;;;;;4925394;29;20022;-78
2021/06/23 00:20:26;;;;;;;3.13;1.17;;;25.60;99.90;;;;;;4947336;29;20031;-80
2021/06/23 00:22:52;;;;;;;1.35;1.25;;;25.60;99.90;;;;;;4943429;29;20083;-81
2021/06/23 00:25:18;;;;;;;4.15;3.38;;;25.50;99.90;;;;;;4942770;29;20034;-81
2021/06/23 00:27:44;;;;;;;1.08;0.98;;;25.50;99.90;;;;;;4950935;29;20154;-84
2021/06/23 00:30:11;;;;;;;1.45;1.35;;;25.50;99.90;;;;;;4953858;29;20031;-81
2021/06/23 00:32:40;;;;;;;1.35;1.25;;;25.20;99.90;;;;;;4954425;29;20035;-80
2021/06/23 00:35:07;;;;;;;3.15;2.80;;;25.10;99.90;;;;;;4954013;29;20034;-82
2021/06/23 00:37:33;;;;;;;2.15;1.98;;;25.00;99.60;;;;;;4954240;29;20047;-83
2021/06/23 00:39:59;;;;;;;2.95;1.63;;;25.00;99.60;;;;;;4953927;29;20027;-82
2021/06/23 00:42:25;;;;;;;2.45;2.25;;;25.10;99.60;;;;;;4936862;29;20487;-82
2021/06/23 00:44:50;;;;;;;1.02;1.00;;;25.30;99.90;;;;;;4953989;29;20412;-80
2021/06/23 00:47:17;;;;;;;1.58;1.48;;;25.30;99.70;;;;;;4953872;29;20024;-82
2021/06/23 00:49:43;;;;;;;18.00;3.13;;;25.30;98.90;;;;;;4953533;29;20498;-84
2021/06/23 00:52:09;;;;;;;2.00;1.83;;;25.30;98.60;;;;;;4935679;29;20032;-82
2021/06/23 00:54:35;;;;;;;3.00;2.22;;;25.30;98.00;;;;;;4934403;29;20023;-85
2021/06/23 00:57:06;;;;;;;0.60;0.60;;;25.10;98.70;;;;;;4933200;29;20028;-83
2021/06/23 00:59:32;;;;;;;;;;;25.20;99.00;;;;;;4939392;29;20106;-82
2021/06/23 01:01:59;;;;;;;2.13;1.88;;;25.30;99.00;;;;;;4925942;29;19906;-82
2021/06/23 01:04:25;;;;;;;2.17;1.98;;;25.30;99.60;;;;;;4944416;28;20062;-84
2021/06/23 01:06:52;;;;;;;0.93;0.93;;;25.20;99.90;;;;;;4944143;29;20047;-84
2021/06/23 01:09:17;;;;;;;3.53;2.67;;;25.20;99.90;;;;;;4942492;29;20122;-85
2021/06/23 01:12:21;;;;;;;1.65;1.55;;;25.00;99.90;;;;;;4950079;29;20468;-85
2021/06/23 01:14:52;;;;;;;2.63;2.42;;;25.10;99.90;;;;;;4904182;29;20042;-86
2021/06/23 01:17:20;;;;;;;2.13;1.92;;;24.90;99.90;;;;;;4951914;29;20114;-80
2021/06/23 01:19:47;;;;;;;4.57;1.73;;;24.90;99.90;;;;;;4947212;29;20388;-83
2021/06/23 01:22:17;;;;;;;3.05;2.05;;;24.80;99.90;;;;;;4943437;29;20032;-85
2021/06/23 01:24:44;;;;;;;1.63;1.50;;;24.80;99.90;;;;;;4926637;29;20031;-85
2021/06/23 01:27:11;;;;;;;2.25;2.05;;;24.80;99.90;;;;;;4943329;29;20039;-83
2021/06/23 01:29:38;;;;;;;4.00;2.90;;;24.80;99.90;;;;;;4942188;29;20032;-86
2021/06/23 01:32:07;;;;;;;2.80;2.50;;;24.70;99.90;;;;;;4943878;29;20388;-83
2021/06/23 01:34:33;;;;;;;5.07;3.80;;;24.60;99.90;;;;;;4943830;29;20498;-84
2021/06/23 01:36:59;;;;;;;3.00;2.50;;;24.70;99.90;;;;;;4950128;29;20027;-83
2021/06/23 01:39:25;;;;;;;6.53;3.40;;;24.70;99.90;;;;;;4952963;29;20035;-86
2021/06/23 01:41:50;;;;;;;2.53;2.15;;;24.50;99.90;;;;;;4936118;29;20102;-84
2021/06/23 01:44:17;;;;;;;2.15;1.88;;;24.50;99.90;;;;;;4935632;29;20055;-82
2021/06/23 01:46:42;;;;;;;8.40;3.70;;;24.30;99.90;;;;;;4936141;29;20023;-83
2021/06/23 01:49:11;;;;;;;0.90;0.90;;;24.20;99.90;;;;;;4935536;29;20035;-85
2021/06/23 01:55:49;;;;;;;;;;;;;;;;;;;;;
2021/06/23 02:14:36;;;;;;;1.77;1.67;;;24.20;99.90;;;;;;4893928;29;20377;-82
2021/06/23 02:17:05;;;;;;;2.55;2.35;;;23.60;99.90;;;;;;4884595;29;20068;-81
2021/06/23 02:19:31;;;;;;;1.95;1.83;;;23.30;99.90;;;;;;4935697;29;20171;-81
2021/06/23 02:21:59;;;;;;;1.75;1.65;;;23.60;99.90;;;;;;4952918;29;20028;-84
2021/06/23 02:24:28;;;;;;;1.33;1.25;;;23.70;99.90;;;;;;4949039;29;20023;-85
2021/06/23 02:26:55;;;;;;;1.27;0.98;;;23.50;99.90;;;;;;4952453;29;20027;-84
2021/06/23 02:29:21;;;;;;;4.88;2.85;;;23.70;99.90;;;;;;4952386;29;20039;-83
2021/06/23 02:31:50;;;;;;;22.42;1.67;;;23.90;99.90;;;;;;4936805;29;20023;-82
2021/06/23 02:34:17;;;;;;;2.30;2.05;;;24.00;99.90;;;;;;4952375;29;20423;-79
2021/06/23 02:36:43;;;;;;;4.97;3.08;;;24.00;99.90;;;;;;4952646;28;20101;-80
2021/06/23 02:39:10;;;;;;;8.95;5.13;;;24.00;99.90;;;;;;4937890;29;20023;-81
2021/06/23 02:41:36;;;;;;;1.35;1.30;;;24.00;99.90;;;;;;4956178;29;20030;-82
2021/06/23 02:44:04;;;;;;;4.45;3.08;;;23.90;99.90;;;;;;4944725;29;20046;-82
2021/06/23 03:27:49;;;;;;;;;;;;;;;;;;;;;
2021/06/23 03:30:44;;;;;;;6.75;2.72;;;23.80;99.90;;;;;;4954696;29;20372;-80
2021/06/23 03:33:36;;;;;;;2.13;1.92;;;23.70;99.90;;;;;;4955290;29;20071;-82
2021/06/23 03:36:02;;;;;;;2.30;2.10;;;23.50;99.90;;;;;;4948430;29;20403;-82
2021/06/23 03:38:28;;;;;;;4.80;2.47;;;23.60;99.90;;;;;;4954860;29;20035;-82
2021/06/23 03:40:54;;;;;;;1.52;1.42;;;23.20;99.90;;;;;;4938113;29;20035;-79
2021/06/23 03:43:20;;;;;;;1.17;1.13;;;23.40;99.90;;;;;;4937348;29;20027;-80
2021/06/23 03:45:47;;;;;;;2.28;1.50;;;23.50;99.90;;;;;;4954775;29;20029;-81
2021/06/23 03:48:14;;;;;;;2.35;2.17;;;23.60;99.90;;;;;;4937309;28;20031;-80
2021/06/23 03:50:41;;;;;;;3.50;2.17;;;23.60;99.90;;;;;;4954933;29;20035;-78
2021/06/23 03:53:07;;;;;;;0.90;0.90;;;23.60;99.90;;;;;;4955060;29;20028;-79
2021/06/23 03:55:33;;;;;;;8.07;4.53;;;23.70;99.90;;;;;;4954463;29;20031;-80
2021/06/23 03:57:59;;;;;;;2.13;1.67;;;23.70;99.90;;;;;;4954503;29;20023;-79
2021/06/23 04:00:27;;;;;;;2.50;2.05;;;23.20;99.90;;;;;;4954528;28;20031;-78
2021/06/23 04:02:53;;;;;;;1.58;1.48;;;23.20;99.90;;;;;;4954288;29;20023;-81
2021/06/23 04:05:19;;;;;;;2.03;1.52;;;23.50;99.90;;;;;;4954400;29;20074;-79
2021/06/23 04:07:45;;;;;;;6.75;2.42;;;23.60;99.90;;;;;;4953729;29;20039;-79
2021/06/23 04:10:12;;;;;;;3.05;2.45;;;23.70;99.90;;;;;;4954622;29;20042;-81
2021/06/23 04:12:38;;;;;;;2.10;1.92;;;23.80;99.90;;;;;;4954307;29;20097;-78
2021/06/23 04:15:15;;;;;;;1.65;1.55;;;24.00;99.90;;;;;;4937710;29;20047;-81
2021/06/23 04:17:41;;;;;;;1.65;1.58;;;24.10;99.90;;;;;;4921102;29;20130;-79
2021/06/23 04:20:09;;;;;;;2.75;2.30;;;24.10;99.90;;;;;;4936633;29;20066;-81
2021/06/23 04:22:36;;;;;;;3.33;2.05;;;24.00;99.90;;;;;;4954891;29;20027;-81
2021/06/23 04:25:04;;;;;;;2.75;2.55;;;24.00;99.90;;;;;;4954540;29;20035;-81
2021/06/23 04:27:30;;;;;;;2.30;1.95;;;24.10;99.90;;;;;;4936285;29;20023;-81
2021/06/23 04:29:56;;;;;;;1.13;1.02;;;24.20;99.90;;;;;;4953715;29;20047;-81
2021/06/23 04:32:21;;;;;;;2.08;1.88;;;24.20;99.90;;;;;;4953953;29;20495;-81
2021/06/23 04:34:47;;;;;;;2.25;2.05;;;24.20;99.90;;;;;;4953624;29;20079;-82
2021/06/23 04:37:13;;;;;;;2.60;1.77;;;24.20;99.90;;;;;;4953989;29;20041;-81
2021/06/23 04:39:39;;;;;;;6.40;1.90;;;23.50;99.90;;;;;;4953972;29;20456;-83
2021/06/23 04:42:05;;;;;;;1.92;1.83;;;23.50;99.90;;;;;;4953692;29;20023;-82
2021/06/23 04:44:31;;;;;;;2.40;2.20;;;23.50;99.90;;;;;;4953542;29;20034;-84
2021/06/23 04:46:57;;;;;;;1.00;1.00;;;23.90;99.90;;;;;;4936645;29;20023;-79
2021/06/23 04:49:23;;;;;;;1.98;1.80;;;24.00;99.90;;;;;;4936267;29;20439;-79
2021/06/23 04:51:48;;;;;;;2.00;1.65;;;23.70;99.90;;;;;;4953517;29;20034;-81
2021/06/23 04:54:14;;;;;;;3.42;2.17;;;23.80;99.90;;;;;;4936499;29;20035;-80
2021/06/23 04:56:40;;;;;;;3.95;3.55;;;23.70;99.90;;;;;;4936463;29;20043;-80
2021/06/23 04:59:06;;;;;;;2.17;1.98;;;23.70;99.90;;;;;;4953418;29;20642;-82
2021/06/23 05:01:32;;;;;;;1.15;1.05;;;23.70;99.90;;;;;;4953038;28;20023;-80
2021/06/23 05:03:57;;;;;;;0.80;0.80;;;23.90;99.90;;;;;;4953138;29;20555;-82
2021/06/23 05:06:23;;;;;;;5.10;2.67;;;23.90;99.90;;;;;;4953143;29;20028;-82
2021/06/23 05:08:49;;;;;;;5.72;3.55;;;24.00;99.90;;;;;;4953232;29;20481;-81
2021/06/23 05:11:14;;;;;;;2.38;2.17;;;24.30;99.90;;;;;;4953511;29;20046;-82
2021/06/23 05:13:40;;;;;;;2.45;2.25;;;24.30;99.90;;;;;;4953274;29;20515;-83
2021/06/23 05:16:07;;;;;;;1.52;1.42;;;24.30;99.90;;;;;;4953498;29;20019;-82
2021/06/23 05:18:34;;;;;;;9.07;3.35;;;24.50;99.90;;;;;;4953364;29;20115;-81
2021/06/23 05:21:01;;;;;;;4.05;2.40;;;24.60;99.90;;;;;;4953267;29;20435;-82
2021/06/23 05:23:27;;;;;;;2.25;1.73;;;24.80;99.90;;;;;;4952971;29;20039;-81
2021/06/23 05:25:53;;;;;;;4.32;1.85;;;25.00;99.90;;;;;;4933984;29;20126;-84
2021/06/23 05:28:19;;;;;;;4.05;2.67;;;25.10;99.90;;;;;;4933697;29;20051;-82
2021/06/23 05:30:45;;;;;;;1.42;1.33;;;25.20;99.90;;;;;;4951306;29;20051;-82
2021/06/23 05:33:17;;;;;;;2.15;1.80;;;25.30;99.90;;;;;;4952187;29;20026;-82
2021/06/23 05:35:43;;;;;;;5.65;2.17;;;25.30;99.90;;;;;;4952179;29;20375;-80
2021/06/23 05:45:22;;;;;;;2.30;2.10;;;25.30;99.90;;;;;;4952967;29;20046;-85
2021/06/23 05:54:57;;;;;;;3.47;2.25;;;25.40;99.90;;;;;;4874645;29;20040;-83
2021/06/23 05:57:29;;;;;;;1.85;1.75;;;25.50;99.90;;;;;;4875210;29;20041;-81
2021/06/23 06:00:00;;;;;;;5.47;2.45;;;25.50;99.90;;;;;;4875167;29;20521;-82
2021/06/23 06:02:32;;;;;;;0.90;0.90;;;25.60;99.90;;;;;;4923376;29;20071;-82
2021/06/23 06:05:04;;;;;;;1.83;1.70;;;25.70;99.90;;;;;;4916530;29;20027;-80
2021/06/23 06:07:54;;;;;;;2.35;2.15;;;25.50;99.90;;;;;;4916144;29;20107;-81
2021/06/23 06:14:02;;;;;;;1.23;1.10;;;25.90;99.90;;;;;;4935863;29;20487;-81
2021/06/23 06:23:29;;;;;;;1.70;1.40;;;26.20;99.10;;;;;;4840604;29;20133;-82
2021/06/23 06:26:16;;;;;;;1.63;1.52;;;26.40;99.70;;;;;;4840774;29;20086;-82
2021/06/23 06:28:42;;;;;;;0.50;0.50;;;26.40;98.90;;;;;;4840289;29;20061;-83
2021/06/23 06:31:12;;;;;;;1.85;1.75;;;26.60;98.90;;;;;;4840380;29;20082;-82
2021/06/23 06:34:32;;;;;;;13.80;2.80;;;26.60;99.10;;;;;;4840637;29;20045;-83
2021/06/23 06:37:16;;;;;;;2.15;0.90;;;26.50;99.30;;;;;;4768197;30;20055;-80
2021/06/23 06:40:03;;;;;;;0.60;0.60;;;26.60;99.20;;;;;;4768349;30;20052;-80
2021/06/23 06:42:34;;;;;;;6.10;3.75;;;26.70;99.30;;;;;;4768183;30;20138;-81
2021/06/23 06:45:10;;;;;;;5.97;3.85;;;26.80;99.30;;;;;;4952250;23;20142;-84
2021/06/23 06:47:36;;;;;;;2.95;2.28;;;26.90;99.70;;;;;;4975320;28;20042;-83
2021/06/23 06:50:02;;;;;;;5.50;2.40;;;27.00;99.90;;;;;;4974805;28;20031;-84
2021/06/23 06:52:34;;;;;;;5.88;2.58;;;27.00;99.90;;;;;;4973831;28;20023;-83
2021/06/23 06:55:07;;;;;;;4.88;3.42;;;27.10;99.90;;;;;;4975024;28;20034;-82
2021/06/23 06:57:34;;;;;;;13.30;4.97;;;27.20;99.90;;;;;;4973456;28;20047;-83
2021/06/23 07:00:00;;;;;;;4.75;1.55;;;27.20;99.90;;;;;;4957986;28;20034;-80
2021/06/23 07:02:26;;;;;;;3.35;2.85;;;27.10;99.40;;;;;;4955159;29;20063;-80
2021/06/23 07:04:52;;;;;;;0.90;0.77;;;27.20;99.40;;;;;;4955576;29;20082;-82
2021/06/23 07:07:18;;;;;;;1.85;1.67;;;27.40;99.20;;;;;;4954702;29;20364;-82
2021/06/23 07:09:44;;;;;;;3.90;2.10;;;27.60;99.10;;;;;;4954167;29;20031;-82
2021/06/23 07:12:10;;;;;;;3.58;3.28;;;27.40;98.90;;;;;;4955195;29;20034;-81
2021/06/23 07:14:36;;;;;;;0.80;0.80;;;27.50;99.10;;;;;;4955368;29;20037;-82
2021/06/23 07:17:02;;;;;;;12.73;3.47;;;27.60;97.80;;;;;;4949407;28;20023;-79
2021/06/23 07:19:28;;;;;;;3.33;2.15;;;27.70;97.50;;;;;;4952422;28;20082;-80
2021/06/23 07:21:53;;;;;;;4.82;3.00;;;27.80;97.20;;;;;;4959524;28;20061;-78
2021/06/23 07:24:19;;;;;;;1.92;1.42;;;27.90;98.10;;;;;;4953342;28;20388;-78
2021/06/23 07:26:48;;;;;;;3.08;2.67;;;28.00;98.30;;;;;;4954373;28;20027;-78
2021/06/23 07:29:15;;;;;;;1.38;1.27;;;28.00;97.50;;;;;;4965072;28;20432;-79
2021/06/23 07:36:52;;;;;;;3.83;3.03;;;28.20;96.90;;;;;;4974736;28;20059;-78
2021/06/23 07:39:19;;;;;;;1.05;0.95;;;28.30;97.40;;;;;;4973183;28;20034;-79
2021/06/23 07:41:47;;;;;;;6.90;3.78;;;28.30;97.00;;;;;;4974174;28;20131;-79
2021/06/23 07:44:17;;;;;;;2.42;1.90;;;28.50;97.40;;;;;;4979493;28;20450;-79
2021/06/23 07:46:55;;;;;;;1.80;1.63;;;28.50;96.20;;;;;;4990492;28;20050;-80
2021/06/23 07:49:22;;;;;;;1.73;1.42;;;28.50;95.70;;;;;;4954091;29;20035;-80
2021/06/23 07:54:28;;;;;;;2.65;2.25;;;28.50;96.40;;;;;;4972631;28;20031;-79
2021/06/23 08:02:50;;;;;;;1.55;1.17;;;28.50;95.40;;;;;;4972723;28;20422;-81
2021/06/23 08:13:11;;;;;;;4.07;1.95;;;29.00;94.20;;;;;;4973721;28;20035;-79
2021/06/23 08:15:40;;;;;;;3.70;2.50;;;29.20;95.00;;;;;;4973132;28;20063;-78
2021/06/23 08:18:07;;;;;;;3.30;1.77;;;29.30;95.40;;;;;;4982041;28;20085;-80
2021/06/23 08:20:45;;;;;;;19.48;4.45;;;29.40;95.20;;;;;;4989386;28;20019;-79
2021/06/23 08:23:11;;;;;;;1.83;1.67;;;29.30;95.00;;;;;;4971201;28;20106;-79
2021/06/23 08:25:37;;;;;;;4.88;2.15;;;29.40;94.30;;;;;;4980500;28;20026;-80
2021/06/23 08:28:03;;;;;;;1.67;1.17;;;29.50;94.00;;;;;;4979704;28;20027;-81
2021/06/23 08:30:29;;;;;;;4.32;2.53;;;29.60;93.80;;;;;;4954006;28;20031;-80
2021/06/23 08:32:56;;;;;;;2.72;2.08;;;29.50;94.00;;;;;;4981381;28;20038;-79
2021/06/23 08:35:21;;;;;;;1.35;1.25;;;29.50;93.80;;;;;;4974366;28;20038;-81
2021/06/23 08:37:47;;;;;;;2.20;1.38;;;29.70;93.10;;;;;;4992256;28;20615;-81
2021/06/23 08:40:14;;;;;;;3.13;1.02;;;29.50;92.80;;;;;;4991586;28;20026;-81
2021/06/23 08:42:41;;;;;;;1.13;1.02;;;29.70;93.10;;;;;;4989640;28;20149;-81
2021/06/23 08:45:09;;;;;;;4.70;3.08;;;29.80;92.80;;;;;;4991542;28;20136;-83
2021/06/23 08:47:46;;;;;;;1.00;0.93;;;29.80;91.70;;;;;;4974371;28;20125;-83
2021/06/23 08:50:15;;;;;;;0.47;0.47;;;29.90;90.40;;;;;;4975088;28;20065;-83
2021/06/23 08:52:47;;;;;;;23.20;3.20;;;30.00;90.30;;;;;;4953753;29;20028;-83
2021/06/23 08:55:19;;;;;;;0.93;0.85;;;30.00;90.50;;;;;;4953847;29;20051;-79
2021/06/23 08:57:47;;;;;;;0.80;0.80;;;30.20;89.90;;;;;;4953188;28;20089;-80
2021/06/23 09:00:13;;;;;;;11.65;1.42;;;30.20;90.10;;;;;;4953369;29;20019;-81
2021/06/23 09:02:40;;;;;;;3.67;3.33;;;30.30;90.70;;;;;;4935985;29;20039;-81
2021/06/23 09:05:12;;;;;;;9.43;2.72;;;30.50;87.70;;;;;;4953060;29;20442;-79
2021/06/23 09:07:42;;;;;;;0.85;0.82;;;30.60;86.10;;;;;;4953100;29;20444;-81
2021/06/23 09:10:27;;;;;;;2.17;1.80;;;30.70;81.00;;;;;;4953360;29;20432;-81
2021/06/23 09:13:08;;;;;;;1.00;0.57;;;30.70;79.00;;;;;;4952884;29;20122;-82
2021/06/23 09:15:47;;;;;;;2.58;1.58;;;30.60;78.00;;;;;;4953313;29;20035;-82
2021/06/23 09:18:18;;;;;;;11.27;7.90;;;30.80;77.20;;;;;;4953306;29;20042;-81
2021/06/23 09:20:46;;;;;;;2.95;2.17;;;30.90;76.40;;;;;;4935979;29;20274;-79
2021/06/23 09:23:12;;;;;;;1.75;1.65;;;31.30;76.70;;;;;;4935638;29;20471;-79
2021/06/23 09:25:39;;;;;;;2.63;2.42;;;31.40;77.60;;;;;;4935716;29;20032;-81
2021/06/23 09:28:13;;;;;;;1.35;1.08;;;31.50;78.50;;;;;;4935946;29;20034;-81
2021/06/23 09:30:41;;;;;;;0.73;0.65;;;31.60;76.30;;;;;;4953076;29;20439;-81
2021/06/23 09:33:12;;;;;;;29.60;5.63;;;31.70;76.30;;;;;;4953014;29;20031;-80
2021/06/23 09:35:40;;;;;;;32.15;3.17;;;31.90;76.40;;;;;;4953056;29;20074;-79
2021/06/23 09:38:06;;;;;;;2.03;1.63;;;32.30;74.70;;;;;;4952747;29;20081;-82
2021/06/23 09:40:42;;;;;;;7.40;4.85;;;32.10;74.90;;;;;;4935920;29;20035;-83
2021/06/23 09:43:10;;;;;;;2.10;1.65;;;32.30;75.00;;;;;;4952658;29;20079;-81
2021/06/23 09:45:35;;;;;;;2.90;2.35;;;32.10;75.40;;;;;;4952806;29;20490;-81
2021/06/23 09:48:04;;;;;;;0.82;0.82;;;32.20;75.30;;;;;;4938818;29;20483;-81
2021/06/23 09:50:32;;;;;;;1.65;0.93;;;32.40;74.50;;;;;;4957508;28;20114;-81
2021/06/23 09:53:01;;;;;;;2.17;1.95;;;32.50;74.60;;;;;;4958629;28;20023;-79
2021/06/23 09:55:40;;;;;;;1.75;1.60;;;32.60;74.40;;;;;;4959009;28;20038;-82
2021/06/23 09:58:10;;;;;;;7.43;3.17;;;32.60;74.10;;;;;;4975419;28;20066;-83
2021/06/23 10:01:11;;;;;;;6.47;2.70;;;32.80;73.60;;;;;;4976466;28;20279;-82
2021/06/23 10:03:58;;;;;;;10.85;4.55;;;32.80;73.80;;;;;;4958103;28;20057;-82
2021/06/23 10:06:27;;;;;;;3.25;2.13;;;33.10;72.40;;;;;;4958240;28;20506;-82
2021/06/23 10:09:12;;;;;;;4.05;1.67;;;33.00;72.70;;;;;;4975790;28;20038;-82
2021/06/23 10:11:39;;;;;;;1.85;1.50;;;32.90;73.30;;;;;;4958065;28;20205;-84
2021/06/23 10:14:07;;;;;;;0.30;0.30;;;33.10;72.40;;;;;;4958169;28;20034;-84
2021/06/23 10:16:34;;;;;;;3.35;1.88;;;33.30;71.30;;;;;;4975743;28;20022;-81
2021/06/23 10:18:59;;;;;;;1.90;1.40;;;33.10;71.10;;;;;;4957998;28;20122;-82
2021/06/23 10:21:28;;;;;;;0.65;0.55;;;33.20;70.60;;;;;;4975747;28;20113;-83
2021/06/23 10:23:55;;;;;;;3.65;1.42;;;33.50;69.10;;;;;;4957483;28;20034;-83
2021/06/23 10:26:22;;;;;;;3.58;1.55;;;33.60;68.50;;;;;;4975264;28;20034;-82
2021/06/23 10:28:51;;;;;;;2.92;2.25;;;33.70;69.00;;;;;;4975217;28;20034;-84
2021/06/23 10:31:19;;;;;;;1.50;1.23;;;33.50;69.30;;;;;;4975478;28;20097;-82
2021/06/23 10:33:45;;;;;;;0.93;0.85;;;33.60;67.30;;;;;;4958023;28;20242;-81
2021/06/23 10:36:11;;;;;;;5.75;2.63;;;34.00;66.90;;;;;;4975338;28;20027;-80
2021/06/23 10:38:38;;;;;;;1.90;1.55;;;34.20;67.00;;;;;;4975278;28;20668;-81
2021/06/23 10:41:05;;;;;;;4.90;3.78;;;34.10;66.90;;;;;;4975352;28;20027;-80
2021/06/23 10:43:31;;;;;;;5.53;4.00;;;34.20;66.60;;;;;;4974724;28;20031;-83
2021/06/23 10:46:05;;;;;;;6.40;5.60;;;33.80;66.80;;;;;;4974895;28;20052;-84
2021/06/23 10:48:52;;;;;;;7.80;2.17;;;33.90;68.40;;;;;;4957495;28;20039;-83
2021/06/23 10:51:28;;;;;;;2.13;1.73;;;34.20;67.70;;;;;;4975157;28;20022;-77
2021/06/23 10:53:54;;;;;;;2.35;0.88;;;34.60;66.60;;;;;;4974891;28;20027;-77
2021/06/23 10:56:40;;;;;;;3.85;2.58;;;34.60;65.90;;;;;;4975247;28;20030;-77
2021/06/23 10:59:36;;;;;;;12.13;1.63;;;34.80;65.50;;;;;;4973597;28;20050;-78
2021/06/23 11:02:12;;;;;;;1.58;1.30;;;35.00;66.10;;;;;;4966437;28;20045;-76
2021/06/23 11:05:02;;;;;;;2.10;1.45;;;34.90;65.30;;;;;;4974867;28;20114;-78
2021/06/23 11:07:36;;;;;;;2.95;2.15;;;34.50;64.20;;;;;;4968599;28;20760;-76
2021/06/23 11:12:43;;;;;;;1.90;1.30;;;35.00;64.60;;;;;;4974490;28;20027;-76
2021/06/23 11:15:16;;;;;;;1.48;0.85;;;35.40;64.30;;;;;;4974593;28;20030;-77
2021/06/23 11:17:50;;;;;;;2.40;1.77;;;35.60;64.20;;;;;;4974401;28;20043;-79
2021/06/23 11:20:19;;;;;;;40.08;4.30;;;35.50;64.10;;;;;;4986401;28;20030;-78
2021/06/23 11:22:46;;;;;;;1.13;1.05;;;35.50;63.50;;;;;;4974526;28;20027;-79
2021/06/23 11:25:32;;;;;;;1.95;1.50;;;35.50;63.60;;;;;;4974188;28;20023;-79
2021/06/23 11:28:07;;;;;;;1.55;0.93;;;35.50;62.90;;;;;;4956836;28;20023;-77
2021/06/23 11:30:33;;;;;;;1.70;1.33;;;35.30;62.60;;;;;;4974355;28;20498;-77
2021/06/23 11:33:42;;;;;;;2.42;1.35;;;35.20;62.00;;;;;;4974668;28;20037;-80
2021/06/23 11:36:10;;;;;;;0.68;0.68;;;35.00;62.60;;;;;;4949386;28;20510;-77
2021/06/23 11:38:38;;;;;;;0.73;0.70;;;35.70;62.90;;;;;;4974251;28;20026;-77
2021/06/23 11:41:06;;;;;;;1.17;0.85;;;36.00;60.30;;;;;;4974008;28;20386;-76
2021/06/23 11:43:32;;;;;;;2.25;1.45;;;36.00;60.20;;;;;;4973802;28;20101;-79
2021/06/23 11:45:57;;;;;;;2.70;0.88;;;35.60;59.60;;;;;;4974426;28;20037;-79
2021/06/23 11:48:24;;;;;;;2.30;0.82;;;35.90;59.20;;;;;;4973557;28;20039;-77
2021/06/23 11:50:51;;;;;;;11.02;1.33;;;36.10;59.60;;;;;;4973496;28;20061;-79
2021/06/23 11:53:18;;;;;;;4.65;2.63;;;36.30;58.90;;;;;;4973725;28;20023;-78
2021/06/23 11:55:45;;;;;;;0.55;0.55;;;36.30;58.70;;;;;;4973393;28;20026;-76
2021/06/23 11:58:11;;;;;;;10.95;2.35;;;36.60;58.60;;;;;;4973010;28;20030;-78
2021/06/23 12:00:39;;;;;;;4.57;1.85;;;36.60;58.60;;;;;;4973884;28;20510;-78
2021/06/23 12:03:07;;;;;;;1.65;1.05;;;36.80;58.30;;;;;;4956623;28;20039;-76
2021/06/23 12:05:34;;;;;;;2.88;1.27;;;36.90;58.70;;;;;;4956313;28;20022;-76
2021/06/23 12:08:00;;;;;;;0.57;0.55;;;36.90;57.30;;;;;;4973820;28;20034;-77
2021/06/23 12:10:29;;;;;;;4.43;1.67;;;36.90;57.70;;;;;;4972443;28;20039;-77
2021/06/23 12:12:56;;;;;;;8.15;3.97;;;36.90;57.60;;;;;;4973520;28;20077;-77
2021/06/23 12:15:24;;;;;;;10.45;3.55;;;36.90;56.90;;;;;;4973536;28;20365;-78
2021/06/23 12:17:53;;;;;;;4.45;2.80;;;37.00;57.20;;;;;;4973315;28;20135;-77
2021/06/23 12:20:20;;;;;;;5.13;2.28;;;37.10;56.10;;;;;;4973542;28;20120;-78
2021/06/23 12:22:55;;;;;;;3.60;1.10;;;37.20;56.00;;;;;;4973193;28;20043;-79
2021/06/23 12:25:25;;;;;;;2.25;0.88;;;37.30;56.40;;;;;;4973308;28;20402;-79
2021/06/23 12:27:52;;;;;;;2.45;2.10;;;37.40;55.90;;;;;;4972827;28;20019;-80
2021/06/23 12:30:19;;;;;;;3.80;0.85;;;37.40;55.60;;;;;;4972353;28;20035;-80
2021/06/23 12:32:44;;;;;;;2.88;2.20;;;37.10;55.30;;;;;;4973053;28;20042;-77
2021/06/23 12:35:11;;;;;;;3.17;1.73;;;36.60;56.00;;;;;;4973086;28;20085;-77
2021/06/23 12:37:38;;;;;;;0.73;0.73;;;36.50;57.40;;;;;;4973175;28;20026;-79
2021/06/23 12:40:04;;;;;;;0.57;0.57;;;37.00;57.10;;;;;;4972679;28;20023;-77
2021/06/23 12:42:30;;;;;;;2.22;1.08;;;36.90;56.40;;;;;;4972284;28;20372;-77
2021/06/23 12:44:56;;;;;;;1.90;1.13;;;37.00;56.10;;;;;;4972340;28;20510;-77
2021/06/23 12:47:22;;;;;;;0.30;0.30;;;37.30;54.40;;;;;;4972456;28;20058;-76
2021/06/23 12:49:48;;;;;;;0.50;0.50;;;37.70;54.70;;;;;;4972635;28;20086;-79
2021/06/23 12:52:14;;;;;;;10.60;2.63;;;37.70;52.60;;;;;;4978506;28;20029;-77
2021/06/23 12:54:39;;;;;;;0.65;0.65;;;37.60;53.20;;;;;;4991654;28;20394;-79
2021/06/23 12:57:06;;;;;;;2.38;2.17;;;37.60;53.40;;;;;;4973689;28;20038;-78
2021/06/23 12:59:32;;;;;;;1.13;0.50;;;37.40;52.20;;;;;;4972561;28;20031;-79
2021/06/23 13:01:58;;;;;;;1.85;0.93;;;37.60;52.70;;;;;;4972551;28;20023;-78
2021/06/23 13:04:25;;;;;;;0.90;0.70;;;37.70;52.80;;;;;;4972925;28;20097;-80
2021/06/23 13:06:51;;;;;;;2.03;1.75;;;37.90;52.40;;;;;;4972548;28;20034;-78
2021/06/23 13:09:17;;;;;;;1.65;1.25;;;38.20;53.00;;;;;;4972447;28;20035;-79
2021/06/23 13:11:44;;;;;;;1.58;1.48;;;38.40;53.40;;;;;;4970877;28;20030;-79
2021/06/23 13:14:10;;;;;;;1.90;1.60;;;37.70;52.80;;;;;;4972576;28;20031;-78
2021/06/23 13:16:35;;;;;;;1.25;0.73;;;37.60;52.90;;;;;;4972659;28;20037;-78
2021/06/23 13:19:01;;;;;;;15.88;4.15;;;38.00;51.90;;;;;;4972511;28;20030;-78
2021/06/23 13:21:27;;;;;;;0.30;0.30;;;38.00;49.90;;;;;;4972049;28;20071;-77
2021/06/23 13:23:53;;;;;;;2.47;1.17;;;37.90;46.90;;;;;;4972242;28;20027;-76
2021/06/23 13:26:21;;;;;;;2.03;1.48;;;38.20;47.40;;;;;;4971954;28;20023;-79
2021/06/23 13:28:47;;;;;;;1.77;0.95;;;38.40;46.30;;;;;;4971826;28;20026;-78
2021/06/23 13:31:13;;;;;;;14.70;1.25;;;38.60;45.90;;;;;;4972315;28;20027;-79
2021/06/23 13:33:39;;;;;;;2.42;2.03;;;38.70;45.00;;;;;;4972270;28;20102;-79
2021/06/23 13:36:05;;;;;;;1.27;0.63;;;38.30;44.20;;;;;;4971997;28;20035;-77
2021/06/23 13:38:31;;;;;;;0.30;0.30;;;38.40;45.00;;;;;;4972465;28;20415;-78
2021/06/23 13:40:59;;;;;;;1.15;1.05;;;38.50;44.50;;;;;;4970583;28;20023;-77
2021/06/23 13:43:26;;;;;;;0.88;0.77;;;38.60;45.10;;;;;;4972129;28;20027;-77
2021/06/23 13:45:52;;;;;;;1.25;0.95;;;38.70;44.70;;;;;;4970867;28;20070;-76
2021/06/23 13:48:19;;;;;;;1.60;0.90;;;38.40;44.50;;;;;;4971942;28;20042;-77
2021/06/23 13:50:46;;;;;;;4.05;1.27;;;38.10;43.60;;;;;;4971893;28;20061;-77
2021/06/23 13:53:13;;;;;;;1.50;1.20;;;38.20;44.10;;;;;;4972022;28;20022;-75
2021/06/23 13:55:41;;;;;;;3.30;1.92;;;38.20;43.90;;;;;;4971971;28;20038;-75
2021/06/23 13:58:08;;;;;;;1.20;0.85;;;38.20;44.20;;;;;;4971887;28;20022;-76
2021/06/23 14:00:39;;;;;;;0.88;0.75;;;37.90;43.00;;;;;;4971893;28;20053;-78
2021/06/23 14:03:06;;;;;;;2.70;2.45;;;38.00;43.60;;;;;;4971829;28;20038;-76
2021/06/23 14:05:34;;;;;;;2.42;0.90;;;38.30;44.00;;;;;;4971792;28;20035;-77
2021/06/23 14:08:01;;;;;;;1.10;1.00;;;38.50;44.90;;;;;;4970755;28;20034;-77
2021/06/23 14:10:28;;;;;;;0.70;0.60;;;38.50;44.70;;;;;;4971304;28;20712;-77
2021/06/23 14:12:54;;;;;;;0.77;0.77;;;38.40;44.60;;;;;;4971881;28;20084;-76
2021/06/23 14:15:20;;;;;;;0.10;0.10;;;38.50;45.20;;;;;;4972122;28;20419;-78
2021/06/23 14:17:46;;;;;;;2.83;1.38;;;38.40;44.70;;;;;;4970357;28;20038;-76
2021/06/23 14:20:16;;;;;;;3.20;2.33;;;38.60;45.30;;;;;;4971695;28;20376;-77
2021/06/23 14:22:41;;;;;;;;;;;38.30;44.40;;;;;;4971830;28;20042;-76
2021/06/23 14:25:08;;;;;;;1.88;1.55;;;38.20;44.40;;;;;;4970800;28;19910;-75
2021/06/23 14:27:35;;;;;;;1.20;1.00;;;38.30;44.50;;;;;;4971628;28;20127;-77
2021/06/23 14:30:02;;;;;;;2.20;1.65;;;38.20;44.60;;;;;;4971934;28;20034;-77
2021/06/23 14:32:28;;;;;;;2.60;1.38;;;38.40;45.20;;;;;;4971917;28;20022;-76
2021/06/23 14:34:54;;;;;;;1.50;0.98;;;38.40;45.60;;;;;;4974258;28;20490;-76
2021/06/23 14:37:20;;;;;;;1.70;1.60;;;38.30;45.30;;;;;;4975264;28;20506;-76
2021/06/23 14:39:47;;;;;;;2.25;1.58;;;38.30;45.50;;;;;;4974646;28;20023;-76
2021/06/23 14:42:13;;;;;;;5.95;1.90;;;38.10;44.80;;;;;;4975023;28;20541;-74
2021/06/23 14:44:39;;;;;;;2.45;1.50;;;37.00;46.00;;;;;;4975042;28;20046;-77
2021/06/23 14:47:05;;;;;;;3.90;3.05;;;37.40;45.80;;;;;;4973849;28;20127;-76